createdAt,value
2022-10-08T00:01:10.979Z,145.96721
2022-10-08T00:06:12.480Z,150.71141
2022-10-08T00:11:14.123Z,150.02007
2022-10-08T00:16:16.109Z,150.71141
2022-10-08T00:21:17.965Z,148.65116
2022-10-08T00:26:19.971Z,150.71141
2022-10-08T00:31:21.720Z,152.10811
2022-10-08T00:36:23.457Z,152.10811
2022-10-08T00:41:25.149Z,151.40741
2022-10-08T00:46:26.902Z,147.30033
2022-10-08T00:51:28.551Z,143.35275
2022-10-08T00:56:31.046Z,144
2022-10-08T01:01:32.734Z,144.65147
2022-10-08T01:06:34.386Z,145.30719
2022-10-08T01:11:36.272Z,144.65147
2022-10-08T01:16:37.948Z,145.30719
2022-10-08T01:21:39.653Z,145.96721
2022-10-08T01:26:41.729Z,144
2022-10-08T01:31:43.550Z,142.70968
2022-10-08T01:36:45.344Z,144
2022-10-08T01:41:47.345Z,143.35275
2022-10-08T01:46:49.084Z,141.4359
2022-10-08T01:51:50.817Z,142.07074
2022-10-08T01:56:52.799Z,142.07074
2022-10-08T02:01:54.563Z,142.07074
2022-10-08T02:06:56.360Z,138.93671
2022-10-08T02:11:58.108Z,138.93671
2022-10-08T02:16:59.887Z,138.32177
2022-10-08T02:22:01.619Z,138.93671
2022-10-08T02:27:03.816Z,137.71069
2022-10-08T02:32:05.484Z,138.93671
2022-10-08T02:37:07.185Z,141.4359
2022-10-08T02:42:09.059Z,140.80511
2022-10-08T02:47:10.735Z,140.80511
2022-10-08T02:52:12.238Z,141.4359
2022-10-08T02:57:14.298Z,136.5
2022-10-08T03:02:15.773Z,135.90031
2022-10-08T03:07:17.317Z,136.5
2022-10-08T03:12:19.064Z,136.5
2022-10-08T03:17:20.539Z,137.10345
2022-10-08T03:22:22.193Z,134.12346
2022-10-08T03:27:25.110Z,132.95706
2022-10-08T03:32:26.597Z,136.5
2022-10-08T03:37:28.222Z,135.90031
2022-10-08T03:42:29.820Z,134.71207
2022-10-08T03:47:31.370Z,134.71207
2022-10-08T03:52:33.025Z,134.12346
2022-10-08T03:57:35.575Z,135.90031
2022-10-08T04:02:37.063Z,137.71069
2022-10-08T04:07:38.612Z,136.5
2022-10-08T04:12:40.199Z,135.90031
2022-10-08T04:17:41.848Z,137.10345
2022-10-08T04:22:43.297Z,135.90031
2022-10-08T04:27:45.119Z,136.5
2022-10-08T04:32:47.087Z,135.30435
2022-10-08T04:37:49.220Z,136.5
2022-10-08T04:42:51.049Z,132.3792
2022-10-08T04:47:52.614Z,136.5
2022-10-08T04:52:54.371Z,135.90031
2022-10-08T04:57:56.030Z,138.32177
2022-10-08T05:02:57.786Z,138.32177
2022-10-08T05:07:59.287Z,141.4359
2022-10-08T05:13:01.017Z,137.10345
2022-10-08T05:18:02.523Z,137.71069
2022-10-08T05:23:04.123Z,140.17834
2022-10-08T05:28:05.996Z,140.80511
2022-10-08T05:33:07.770Z,142.07074
2022-10-08T05:38:09.251Z,144.65147
2022-10-08T05:43:11.079Z,138.93671
2022-10-08T05:48:12.890Z,131.23404
2022-10-08T05:53:14.503Z,134.12346
2022-10-08T05:58:16.294Z,138.32177
2022-10-08T06:03:18.052Z,143.35275
2022-10-08T06:08:19.792Z,142.70968
2022-10-08T06:13:21.532Z,144.65147
2022-10-08T06:18:23.258Z,134.12346
2022-10-08T06:23:24.978Z,151.40741
2022-10-08T06:28:26.727Z,157.88889
2022-10-08T06:33:28.371Z,152.10811
2022-10-08T06:38:30.037Z,150.71141
2022-10-08T06:43:31.848Z,154.23891
2022-10-08T06:48:33.606Z,152.10811
2022-10-08T06:53:35.175Z,172.99628
2022-10-08T06:58:36.897Z,183.68872
2022-10-08T07:03:38.392Z,180.01533
2022-10-08T07:08:39.924Z,176.45283
2022-10-08T07:13:41.447Z,184.625
2022-10-08T07:18:43.276Z,182.75969
2022-10-08T07:23:44.726Z,178.22053
2022-10-08T07:28:47.553Z,177.33333
2022-10-08T07:33:49.309Z,195.42857
2022-10-08T07:38:50.946Z,178.22053
2022-10-08T07:43:52.715Z,191.38956
2022-10-08T07:48:54.490Z,201.74059
2022-10-08T07:54:01.463Z,187.47826
2022-10-08T07:59:04.706Z,210.66667
2022-10-08T08:04:06.431Z,202.82353
2022-10-08T08:09:08.055Z,217.77778
2022-10-08T08:14:09.844Z,234.56604
2022-10-08T08:19:11.480Z,215.36564
2022-10-08T08:24:13.104Z,214.17544
2022-10-08T08:29:15.135Z,231.85047
2022-10-08T08:34:16.799Z,255.11111
2022-10-08T08:39:18.475Z,245.96078
2022-10-08T08:44:20.320Z,278.78261
2022-10-08T08:49:22.089Z,269.92593
2022-10-08T08:54:23.907Z,294
2022-10-08T08:59:25.897Z,414.22901
2022-10-08T09:04:27.665Z,410.66667
2022-10-08T09:09:29.461Z,444.81301
2022-10-08T09:14:31.510Z,432.88889
2022-10-08T09:19:33.329Z,374.76923
2022-10-08T09:24:35.075Z,396.94118
2022-10-08T09:29:37.033Z,448.91803
2022-10-08T09:34:38.760Z,494
2022-10-08T09:39:40.495Z,494
2022-10-08T09:44:42.163Z,494
2022-10-08T09:49:44.111Z,553.90099
2022-10-08T09:54:45.905Z,470.49573
2022-10-08T09:59:48.941Z,461.64706
2022-10-08T10:04:50.686Z,466.0339
2022-10-08T10:09:52.463Z,479.65217
2022-10-08T10:14:54.354Z,448.91803
2022-10-08T10:19:56.086Z,466.0339
2022-10-08T10:24:57.914Z,509.13761
2022-10-08T10:29:59.865Z,525.13208
2022-10-08T10:35:01.565Z,444.81301
2022-10-08T10:40:03.258Z,553.90099
2022-10-08T10:45:05.075Z,514.37037
2022-10-08T10:50:06.778Z,504
2022-10-08T10:55:08.423Z,519.70093
2022-10-08T11:00:10.496Z,466.0339
2022-10-08T11:05:12.360Z,400.2963
2022-10-08T11:10:14.130Z,432.88889
2022-10-08T11:15:15.940Z,453.09091
2022-10-08T11:20:17.657Z,457.33333
2022-10-08T11:25:19.248Z,572.57143
2022-10-08T11:30:21.427Z,714
2022-10-08T11:35:23.196Z,585.66667
2022-10-08T11:40:24.843Z,677.33333
2022-10-08T11:45:26.496Z,695.21951
2022-10-08T11:50:27.991Z,677.33333
2022-10-08T11:55:29.611Z,744
2022-10-08T12:00:31.760Z,704.49383
2022-10-08T12:05:33.522Z,628.44444
2022-10-08T12:10:35.183Z,733.74359
2022-10-08T12:15:36.745Z,644
2022-10-08T12:20:38.891Z,606.36559
2022-10-08T12:25:40.560Z,677.33333
2022-10-08T12:30:42.464Z,475.03448
2022-10-08T12:35:44.131Z,475.03448
2022-10-08T12:40:45.935Z,560
2022-10-08T12:45:47.698Z,519.70093
2022-10-08T12:50:49.723Z,444.81301
2022-10-08T12:55:51.480Z,444.81301
2022-10-08T13:00:53.780Z,509.13761
2022-10-08T13:05:55.541Z,436.8
2022-10-08T13:10:57.433Z,525.13208
2022-10-08T13:15:59.473Z,530.66667
2022-10-08T13:21:01.104Z,530.66667
2022-10-08T13:26:02.807Z,606.36559
2022-10-08T13:31:04.875Z,553.90099
2022-10-08T13:36:06.780Z,479.65217
2022-10-08T13:41:08.510Z,440.77419
2022-10-08T13:46:10.024Z,579.05155
2022-10-08T13:51:11.632Z,613.56522
2022-10-08T13:56:13.239Z,560
2022-10-08T14:01:15.378Z,695.21951
2022-10-08T14:06:17.081Z,733.74359
2022-10-08T14:11:18.755Z,613.56522
2022-10-08T14:16:20.482Z,599.31915
2022-10-08T14:21:22.196Z,553.90099
2022-10-08T14:26:23.733Z,429.03937
2022-10-08T14:31:25.567Z,425.25
2022-10-08T14:36:27.998Z,387.16547
2022-10-08T14:41:29.723Z,393.63504
2022-10-08T14:46:31.467Z,461.64706
2022-10-08T14:51:32.922Z,425.25
2022-10-08T14:56:34.374Z,494
2022-10-08T15:01:36.350Z,494
2022-10-08T15:06:38.202Z,479.65217
2022-10-08T15:11:39.811Z,444.81301
2022-10-08T15:16:41.830Z,400.2963
2022-10-08T15:21:43.774Z,357.42282
2022-10-08T15:26:45.294Z,368.82759
2022-10-08T15:31:47.252Z,377.80282
2022-10-08T15:36:48.916Z,363.04762
2022-10-08T15:41:50.514Z,310.66667
2022-10-08T15:46:54.880Z,296
2022-10-08T15:52:00.310Z,258.28571
2022-10-08T15:57:01.848Z,268.21053
2022-10-08T16:02:03.843Z,273.41176
2022-10-08T16:07:05.349Z,284.33149
2022-10-08T16:12:07.037Z,275.1828
2022-10-08T16:17:08.782Z,255.11111
2022-10-08T16:22:10.440Z,269.92593
2022-10-08T16:27:12.077Z,153.52381
2022-10-08T16:32:14.034Z,152.81356
2022-10-08T16:37:15.712Z,179.1145
2022-10-08T16:42:17.396Z,198.54545
2022-10-08T16:47:19.339Z,201.74059
2022-10-08T16:52:20.770Z,208.37768
2022-10-08T16:57:22.514Z,194.4065
2022-10-08T17:02:26.050Z,201.74059
2022-10-08T17:07:28.823Z,200.66667
2022-10-08T17:12:30.591Z,201.74059
2022-10-08T17:17:32.418Z,206.12766
2022-10-08T17:22:34.309Z,198.54545
2022-10-08T17:27:36.166Z,180.92308
2022-10-08T17:32:38.137Z,183.68872
2022-10-08T17:37:40.088Z,184.625
2022-10-08T17:42:41.833Z,183.68872
2022-10-08T17:47:43.965Z,166.38267
2022-10-08T17:52:46.125Z,170.47059
2022-10-08T17:57:48.150Z,170.47059
2022-10-08T18:02:50.705Z,167.18841
2022-10-08T18:07:52.898Z,164.78853
2022-10-08T18:12:54.654Z,164.78853
2022-10-08T18:17:56.473Z,163.21708
2022-10-08T18:22:58.198Z,162.43972
2022-10-08T18:27:59.928Z,156.41379
2022-10-08T18:33:02.041Z,152.10811
2022-10-08T18:38:03.767Z,150.02007
2022-10-08T18:43:05.495Z,141.4359
2022-10-08T18:48:07.165Z,140.80511
2022-10-08T18:53:08.965Z,142.07074
2022-10-08T18:58:10.435Z,147.30033
2022-10-08T19:03:12.702Z,143.35275
2022-10-08T19:08:14.360Z,145.30719
2022-10-08T19:13:15.981Z,148.65116
2022-10-08T19:18:17.752Z,152.10811
2022-10-08T19:23:19.420Z,146.63158
2022-10-08T19:28:21.168Z,146.63158
2022-10-08T19:33:23.296Z,144
2022-10-08T19:38:25.085Z,137.71069
2022-10-08T19:43:26.719Z,139.55556
2022-10-08T19:48:28.406Z,127.8806
2022-10-08T19:53:30.105Z,135.30435
2022-10-08T19:58:31.813Z,135.90031
2022-10-08T20:03:33.908Z,135.90031
2022-10-08T20:08:35.527Z,139.55556
2022-10-08T20:13:37.199Z,134.12346
2022-10-08T20:18:39.414Z,134.12346
2022-10-08T20:23:41.149Z,134.71207
2022-10-08T20:28:43.309Z,132.3792
2022-10-08T20:33:45.341Z,129.54217
2022-10-08T20:38:47.066Z,132.3792
2022-10-08T20:43:48.768Z,127.33333
2022-10-08T20:48:50.589Z,125.17647
2022-10-08T20:53:52.344Z,120.5043
2022-10-08T20:58:54.101Z,127.8806
2022-10-08T21:03:56.079Z,120
2022-10-08T21:08:57.799Z,122.55072
2022-10-08T21:13:59.604Z,121.01149
2022-10-08T21:19:01.412Z,121.52161
2022-10-08T21:24:03.250Z,120.5043
2022-10-08T21:29:04.971Z,120.5043
2022-10-08T21:34:07.186Z,121.52161
2022-10-08T21:39:09.558Z,125.17647
2022-10-08T21:44:11.218Z,122.55072
2022-10-08T21:49:12.734Z,122.03468
2022-10-08T21:54:14.382Z,121.01149
2022-10-08T21:59:16.109Z,113.69697
2022-10-08T22:04:17.880Z,120.5043
2022-10-08T22:09:19.635Z,121.52161
2022-10-08T22:14:21.364Z,124.64516
2022-10-08T22:19:22.808Z,123.06977
2022-10-08T22:24:24.805Z,119
2022-10-08T22:29:26.503Z,113.69697
2022-10-08T22:34:28.509Z,110.03774
2022-10-08T22:39:30.232Z,103.58549
2022-10-08T22:44:31.960Z,101.14286
2022-10-08T22:49:33.758Z,99.94937
2022-10-08T22:54:36.060Z,98.77387
2022-10-08T22:59:37.821Z,97.23383
2022-10-08T23:04:39.946Z,96.09877
2022-10-08T23:09:41.611Z,96.09877
2022-10-08T23:14:43.273Z,94.98039
2022-10-08T23:19:44.986Z,94.2439
2022-10-08T23:24:46.739Z,93.87835
2022-10-08T23:29:48.388Z,94.2439
2022-10-08T23:34:50.273Z,93.15254
2022-10-08T23:39:57.050Z,91.01671
2022-10-08T23:44:59.611Z,91.72182
2022-10-08T23:50:01.461Z,92.43373
2022-10-08T23:55:03.208Z,92.43373
